createdAt,value
2023-02-09T07:30:34.751Z,99
2023-02-09T07:40:44.280Z,99
2023-02-09T07:50:43.786Z,99
2023-02-09T08:00:43.644Z,99
2023-02-09T08:10:46.363Z,97
2023-02-09T08:20:22.226Z,94
2023-02-09T08:30:21.833Z,95
2023-02-09T08:40:21.796Z,95
2023-02-09T08:50:27.694Z,94
2023-02-09T09:00:21.861Z,93
2023-02-09T09:10:21.908Z,94
2023-02-09T09:20:22.017Z,93
2023-02-09T09:30:22.026Z,93
2023-02-09T09:40:21.964Z,92
2023-02-09T09:50:21.964Z,92
2023-02-09T10:00:54.240Z,92
2023-02-09T10:10:22.091Z,91
2023-02-09T10:20:22.031Z,91
2023-02-09T10:30:28.977Z,89
2023-02-09T10:40:24.623Z,89
2023-02-09T10:50:22.190Z,88
2023-02-09T11:00:27.792Z,88
2023-02-09T11:00:31.723Z,87
2023-02-09T11:10:32.641Z,83
2023-02-09T11:20:25.839Z,81
2023-02-09T11:30:29.170Z,77
2023-02-09T11:40:27.382Z,78
2023-02-09T11:50:30.061Z,79
2023-02-09T12:00:53.420Z,78
2023-02-09T12:10:22.349Z,76
2023-02-09T12:20:29.454Z,74
2023-02-09T12:30:29.442Z,72
2023-02-09T12:40:35.984Z,69
2023-02-09T12:50:31.738Z,66
2023-02-09T13:00:28.398Z,65
2023-02-09T13:10:22.498Z,65
2023-02-09T13:20:22.524Z,65
2023-02-09T13:30:22.572Z,60
2023-02-09T13:40:23.381Z,58
2023-02-09T13:50:22.586Z,58
2023-02-09T14:00:28.516Z,58
2023-02-09T14:10:28.506Z,58
2023-02-09T14:20:22.711Z,58
2023-02-09T14:30:22.925Z,58
2023-02-09T14:40:30.464Z,57
2023-02-09T14:45:27.680Z,57
2023-02-09T14:50:22.966Z,58
2023-02-09T15:00:23.078Z,60
2023-02-09T15:10:23.200Z,61
2023-02-09T15:20:23.384Z,63
2023-02-09T15:30:23.127Z,64
2023-02-09T15:40:23.110Z,66
2023-02-09T15:50:23.206Z,70
2023-02-09T16:00:24.025Z,71
2023-02-09T16:10:24.008Z,73
2023-02-09T16:20:25.602Z,73
2023-02-09T16:30:24.638Z,76
2023-02-09T16:40:23.263Z,80
2023-02-09T16:50:23.295Z,79
2023-02-09T17:00:23.277Z,79
2023-02-09T20:03:27.730Z,79
